sensor_id;sensor_type;location;lat;lon;timestamp;temperature;humidity
3752;DHT22;50827;47.014;7.652;2023-04-19T00:01:16;10.30;99.90
3752;DHT22;50827;47.014;7.652;2023-04-19T00:03:42;10.40;99.90
3752;DHT22;50827;47.014;7.652;2023-04-19T00:06:09;10.40;99.90
3752;DHT22;50827;47.014;7.652;2023-04-19T00:08:36;10.40;99.90
3752;DHT22;50827;47.014;7.652;2023-04-19T00:11:03;10.50;99.90
3752;DHT22;50827;47.014;7.652;2023-04-19T00:13:29;10.60;99.90
3752;DHT22;50827;47.014;7.652;2023-04-19T00:15:56;10.50;99.90
3752;DHT22;50827;47.014;7.652;2023-04-19T00:18:23;10.50;99.90
3752;DHT22;50827;47.014;7.652;2023-04-19T00:20:49;10.50;99.90
3752;DHT22;50827;47.014;7.652;2023-04-19T00:23:16;10.50;99.90
3752;DHT22;50827;47.014;7.652;2023-04-19T00:25:45;10.50;99.90
3752;DHT22;50827;47.014;7.652;2023-04-19T00:28:11;10.50;99.90
3752;DHT22;50827;47.014;7.652;2023-04-19T00:30:38;10.50;99.90
3752;DHT22;50827;47.014;7.652;2023-04-19T00:33:05;10.50;99.90
3752;DHT22;50827;47.014;7.652;2023-04-19T00:35:41;10.50;99.90
3752;DHT22;50827;47.014;7.652;2023-04-19T00:38:07;10.40;99.90
3752;DHT22;50827;47.014;7.652;2023-04-19T00:40:36;10.40;99.90
3752;DHT22;50827;47.014;7.652;2023-04-19T00:43:02;10.30;99.90
3752;DHT22;50827;47.014;7.652;2023-04-19T00:45:31;10.30;99.90
3752;DHT22;50827;47.014;7.652;2023-04-19T00:47:59;10.30;99.90
3752;DHT22;50827;47.014;7.652;2023-04-19T00:50:26;10.30;99.90
3752;DHT22;50827;47.014;7.652;2023-04-19T00:52:54;10.20;99.90
3752;DHT22;50827;47.014;7.652;2023-04-19T00:55:22;10.20;99.90
3752;DHT22;50827;47.014;7.652;2023-04-19T00:57:49;10.20;99.90
3752;DHT22;50827;47.014;7.652;2023-04-19T01:00:17;10.20;99.90
3752;DHT22;50827;47.014;7.652;2023-04-19T01:02:45;10.00;99.90
3752;DHT22;50827;47.014;7.652;2023-04-19T01:05:13;10.00;99.90
3752;DHT22;50827;47.014;7.652;2023-04-19T01:07:41;9.90;99.90
3752;DHT22;50827;47.014;7.652;2023-04-19T01:10:09;9.90;99.90
3752;DHT22;50827;47.014;7.652;2023-04-19T01:12:35;9.90;99.90
3752;DHT22;50827;47.014;7.652;2023-04-19T01:15:03;9.90;99.90
3752;DHT22;50827;47.014;7.652;2023-04-19T01:17:31;9.90;99.90
3752;DHT22;50827;47.014;7.652;2023-04-19T01:20:03;9.90;99.90
3752;DHT22;50827;47.014;7.652;2023-04-19T01:22:35;9.80;99.90
3752;DHT22;50827;47.014;7.652;2023-04-19T01:25:06;9.70;99.90
3752;DHT22;50827;47.014;7.652;2023-04-19T01:27:32;9.70;99.90
3752;DHT22;50827;47.014;7.652;2023-04-19T01:29:59;9.70;99.90
3752;DHT22;50827;47.014;7.652;2023-04-19T01:32:26;9.70;99.90
3752;DHT22;50827;47.014;7.652;2023-04-19T01:34:52;9.60;99.90
3752;DHT22;50827;47.014;7.652;2023-04-19T01:37:19;9.60;99.90
3752;DHT22;50827;47.014;7.652;2023-04-19T01:39:46;9.50;99.90
3752;DHT22;50827;47.014;7.652;2023-04-19T01:42:12;9.50;99.90
3752;DHT22;50827;47.014;7.652;2023-04-19T01:44:39;9.60;99.90
3752;DHT22;50827;47.014;7.652;2023-04-19T01:47:06;9.60;99.90
3752;DHT22;50827;47.014;7.652;2023-04-19T01:49:32;9.70;99.90
3752;DHT22;50827;47.014;7.652;2023-04-19T01:51:59;9.60;99.90
3752;DHT22;50827;47.014;7.652;2023-04-19T01:54:26;9.60;99.90
3752;DHT22;50827;47.014;7.652;2023-04-19T01:56:52;9.60;99.90
3752;DHT22;50827;47.014;7.652;2023-04-19T01:59:19;9.60;99.90
3752;DHT22;50827;47.014;7.652;2023-04-19T02:01:46;9.70;99.90
3752;DHT22;50827;47.014;7.652;2023-04-19T02:04:13;9.70;99.90
3752;DHT22;50827;47.014;7.652;2023-04-19T02:06:40;9.70;99.90
3752;DHT22;50827;47.014;7.652;2023-04-19T02:09:06;9.70;99.90
3752;DHT22;50827;47.014;7.652;2023-04-19T02:11:33;9.70;99.90
3752;DHT22;50827;47.014;7.652;2023-04-19T02:14:00;9.70;99.90
3752;DHT22;50827;47.014;7.652;2023-04-19T02:16:27;9.70;99.90
3752;DHT22;50827;47.014;7.652;2023-04-19T02:18:54;9.60;99.90
3752;DHT22;50827;47.014;7.652;2023-04-19T02:21:21;9.60;99.90
3752;DHT22;50827;47.014;7.652;2023-04-19T02:23:47;9.60;99.90
3752;DHT22;50827;47.014;7.652;2023-04-19T02:26:14;9.50;99.90
3752;DHT22;50827;47.014;7.652;2023-04-19T02:28:41;9.40;99.90
3752;DHT22;50827;47.014;7.652;2023-04-19T02:31:07;9.40;99.90
3752;DHT22;50827;47.014;7.652;2023-04-19T02:33:34;9.40;99.90
3752;DHT22;50827;47.014;7.652;2023-04-19T02:36:01;9.50;99.90
3752;DHT22;50827;47.014;7.652;2023-04-19T02:38:28;9.50;99.90
3752;DHT22;50827;47.014;7.652;2023-04-19T02:40:55;9.60;99.90
3752;DHT22;50827;47.014;7.652;2023-04-19T02:43:21;9.60;99.90
3752;DHT22;50827;47.014;7.652;2023-04-19T02:45:48;9.60;99.90
3752;DHT22;50827;47.014;7.652;2023-04-19T02:48:14;9.60;99.90
3752;DHT22;50827;47.014;7.652;2023-04-19T02:50:41;9.50;99.90
3752;DHT22;50827;47.014;7.652;2023-04-19T02:53:08;9.50;99.90
3752;DHT22;50827;47.014;7.652;2023-04-19T02:55:34;9.50;99.90
3752;DHT22;50827;47.014;7.652;2023-04-19T02:58:01;9.60;99.90
3752;DHT22;50827;47.014;7.652;2023-04-19T03:00:28;9.50;99.90
3752;DHT22;50827;47.014;7.652;2023-04-19T03:02:55;9.60;99.90
3752;DHT22;50827;47.014;7.652;2023-04-19T03:05:22;9.60;99.90
3752;DHT22;50827;47.014;7.652;2023-04-19T03:07:49;9.70;99.90
3752;DHT22;50827;47.014;7.652;2023-04-19T03:10:16;9.70;99.90
3752;DHT22;50827;47.014;7.652;2023-04-19T03:12:42;9.70;99.90
3752;DHT22;50827;47.014;7.652;2023-04-19T03:15:09;9.70;99.90
3752;DHT22;50827;47.014;7.652;2023-04-19T03:17:36;9.70;99.90
3752;DHT22;50827;47.014;7.652;2023-04-19T03:20:03;9.70;99.90
3752;DHT22;50827;47.014;7.652;2023-04-19T03:22:35;9.70;99.90
3752;DHT22;50827;47.014;7.652;2023-04-19T03:25:02;9.70;99.90
3752;DHT22;50827;47.014;7.652;2023-04-19T03:27:28;9.60;99.90
3752;DHT22;50827;47.014;7.652;2023-04-19T03:29:55;9.60;99.90
3752;DHT22;50827;47.014;7.652;2023-04-19T03:32:22;9.60;99.90
3752;DHT22;50827;47.014;7.652;2023-04-19T03:34:49;9.60;99.90
3752;DHT22;50827;47.014;7.652;2023-04-19T03:37:15;9.70;99.90
3752;DHT22;50827;47.014;7.652;2023-04-19T03:39:42;9.70;99.90
3752;DHT22;50827;47.014;7.652;2023-04-19T03:42:09;9.70;99.90
3752;DHT22;50827;47.014;7.652;2023-04-19T03:44:36;9.80;99.90
3752;DHT22;50827;47.014;7.652;2023-04-19T03:47:02;9.80;99.90
3752;DHT22;50827;47.014;7.652;2023-04-19T03:49:29;9.90;99.90
3752;DHT22;50827;47.014;7.652;2023-04-19T03:51:56;9.90;99.90
3752;DHT22;50827;47.014;7.652;2023-04-19T03:54:22;9.90;99.90
3752;DHT22;50827;47.014;7.652;2023-04-19T03:56:49;10.00;99.90
3752;DHT22;50827;47.014;7.652;2023-04-19T03:59:15;10.00;99.90
3752;DHT22;50827;47.014;7.652;2023-04-19T04:01:42;10.00;99.90
3752;DHT22;50827;47.014;7.652;2023-04-19T04:04:09;10.00;99.90
3752;DHT22;50827;47.014;7.652;2023-04-19T04:06:37;10.00;99.90
3752;DHT22;50827;47.014;7.652;2023-04-19T04:09:04;10.10;99.90
3752;DHT22;50827;47.014;7.652;2023-04-19T04:11:30;10.00;99.90
3752;DHT22;50827;47.014;7.652;2023-04-19T04:13:57;10.10;99.90
3752;DHT22;50827;47.014;7.652;2023-04-19T04:16:24;10.10;99.90
3752;DHT22;50827;47.014;7.652;2023-04-19T04:18:50;10.20;99.90
3752;DHT22;50827;47.014;7.652;2023-04-19T04:21:17;10.20;99.90
3752;DHT22;50827;47.014;7.652;2023-04-19T04:23:44;10.10;99.90
3752;DHT22;50827;47.014;7.652;2023-04-19T04:26:11;10.10;99.90
3752;DHT22;50827;47.014;7.652;2023-04-19T04:28:39;10.10;99.90
3752;DHT22;50827;47.014;7.652;2023-04-19T04:31:05;10.10;99.90
3752;DHT22;50827;47.014;7.652;2023-04-19T04:33:32;10.10;99.90
3752;DHT22;50827;47.014;7.652;2023-04-19T04:35:59;10.10;99.90
3752;DHT22;50827;47.014;7.652;2023-04-19T04:38:25;10.20;99.90
3752;DHT22;50827;47.014;7.652;2023-04-19T04:40:53;10.10;99.90
3752;DHT22;50827;47.014;7.652;2023-04-19T04:43:24;10.10;99.90
3752;DHT22;50827;47.014;7.652;2023-04-19T04:45:51;10.00;99.90
3752;DHT22;50827;47.014;7.652;2023-04-19T04:48:21;10.00;99.90
3752;DHT22;50827;47.014;7.652;2023-04-19T04:50:47;10.00;99.90
3752;DHT22;50827;47.014;7.652;2023-04-19T04:53:14;10.00;99.90
3752;DHT22;50827;47.014;7.652;2023-04-19T04:55:41;10.00;99.90
3752;DHT22;50827;47.014;7.652;2023-04-19T04:58:07;10.00;99.90
3752;DHT22;50827;47.014;7.652;2023-04-19T05:00:34;10.00;99.90
3752;DHT22;50827;47.014;7.652;2023-04-19T05:03:01;10.00;99.90
3752;DHT22;50827;47.014;7.652;2023-04-19T05:05:28;10.00;99.90
3752;DHT22;50827;47.014;7.652;2023-04-19T05:07:55;10.00;99.90
3752;DHT22;50827;47.014;7.652;2023-04-19T05:10:22;10.10;99.90
3752;DHT22;50827;47.014;7.652;2023-04-19T05:12:48;10.10;99.90
3752;DHT22;50827;47.014;7.652;2023-04-19T05:15:15;10.10;99.90
3752;DHT22;50827;47.014;7.652;2023-04-19T05:17:42;10.10;99.90
3752;DHT22;50827;47.014;7.652;2023-04-19T05:20:09;10.10;99.90
3752;DHT22;50827;47.014;7.652;2023-04-19T05:22:36;10.10;99.90
3752;DHT22;50827;47.014;7.652;2023-04-19T05:25:04;10.20;99.90
3752;DHT22;50827;47.014;7.652;2023-04-19T05:27:31;10.20;99.90
3752;DHT22;50827;47.014;7.652;2023-04-19T05:29:58;10.20;99.90
3752;DHT22;50827;47.014;7.652;2023-04-19T05:32:24;10.20;99.90
3752;DHT22;50827;47.014;7.652;2023-04-19T05:34:51;10.20;99.90
3752;DHT22;50827;47.014;7.652;2023-04-19T05:37:18;10.20;99.90
3752;DHT22;50827;47.014;7.652;2023-04-19T05:39:44;10.20;99.90
3752;DHT22;50827;47.014;7.652;2023-04-19T05:42:11;10.20;99.90
3752;DHT22;50827;47.014;7.652;2023-04-19T05:44:38;10.30;99.90
3752;DHT22;50827;47.014;7.652;2023-04-19T05:47:04;10.30;99.90
3752;DHT22;50827;47.014;7.652;2023-04-19T05:49:31;10.40;99.90
3752;DHT22;50827;47.014;7.652;2023-04-19T05:51:58;10.40;99.90
3752;DHT22;50827;47.014;7.652;2023-04-19T05:54:24;10.50;99.90
3752;DHT22;50827;47.014;7.652;2023-04-19T05:56:51;10.50;99.90
3752;DHT22;50827;47.014;7.652;2023-04-19T05:59:18;10.50;99.90
3752;DHT22;50827;47.014;7.652;2023-04-19T06:01:44;10.50;99.90
3752;DHT22;50827;47.014;7.652;2023-04-19T06:04:12;10.50;99.90
3752;DHT22;50827;47.014;7.652;2023-04-19T06:06:39;10.60;99.90
3752;DHT22;50827;47.014;7.652;2023-04-19T06:09:06;10.70;99.90
3752;DHT22;50827;47.014;7.652;2023-04-19T06:11:33;10.70;99.90
3752;DHT22;50827;47.014;7.652;2023-04-19T06:14:13;10.70;99.90
3752;DHT22;50827;47.014;7.652;2023-04-19T06:16:40;10.70;99.90
3752;DHT22;50827;47.014;7.652;2023-04-19T06:19:07;10.70;99.90
3752;DHT22;50827;47.014;7.652;2023-04-19T06:21:34;10.70;99.90
3752;DHT22;50827;47.014;7.652;2023-04-19T06:24:01;10.80;99.90
3752;DHT22;50827;47.014;7.652;2023-04-19T06:26:28;10.80;99.90
3752;DHT22;50827;47.014;7.652;2023-04-19T06:28:54;10.80;99.90
3752;DHT22;50827;47.014;7.652;2023-04-19T06:31:21;10.80;99.90
3752;DHT22;50827;47.014;7.652;2023-04-19T06:33:48;10.70;99.90
3752;DHT22;50827;47.014;7.652;2023-04-19T06:36:15;10.70;99.90
3752;DHT22;50827;47.014;7.652;2023-04-19T06:38:41;10.70;99.90
3752;DHT22;50827;47.014;7.652;2023-04-19T06:41:10;10.70;99.90
3752;DHT22;50827;47.014;7.652;2023-04-19T06:43:36;10.70;99.90
3752;DHT22;50827;47.014;7.652;2023-04-19T06:46:07;10.80;99.90
3752;DHT22;50827;47.014;7.652;2023-04-19T06:48:35;10.80;99.90
3752;DHT22;50827;47.014;7.652;2023-04-19T06:51:02;10.70;99.90
3752;DHT22;50827;47.014;7.652;2023-04-19T06:53:29;10.60;99.90
3752;DHT22;50827;47.014;7.652;2023-04-19T06:56:00;10.40;99.90
3752;DHT22;50827;47.014;7.652;2023-04-19T06:58:27;10.50;99.90
3752;DHT22;50827;47.014;7.652;2023-04-19T07:00:54;10.40;99.90
3752;DHT22;50827;47.014;7.652;2023-04-19T07:03:21;10.40;99.90
3752;DHT22;50827;47.014;7.652;2023-04-19T07:05:48;10.30;99.90
3752;DHT22;50827;47.014;7.652;2023-04-19T07:08:17;10.30;99.90
3752;DHT22;50827;47.014;7.652;2023-04-19T07:10:44;10.30;99.90
3752;DHT22;50827;47.014;7.652;2023-04-19T07:13:10;10.30;99.90
3752;DHT22;50827;47.014;7.652;2023-04-19T07:15:37;10.30;99.90
3752;DHT22;50827;47.014;7.652;2023-04-19T07:18:04;10.30;99.90
3752;DHT22;50827;47.014;7.652;2023-04-19T07:20:31;10.30;99.90
3752;DHT22;50827;47.014;7.652;2023-04-19T07:22:58;10.30;99.90
3752;DHT22;50827;47.014;7.652;2023-04-19T07:25:25;10.40;99.90
3752;DHT22;50827;47.014;7.652;2023-04-19T07:27:52;10.40;99.90
3752;DHT22;50827;47.014;7.652;2023-04-19T07:30:20;10.40;99.90
3752;DHT22;50827;47.014;7.652;2023-04-19T07:32:47;10.50;99.90
3752;DHT22;50827;47.014;7.652;2023-04-19T07:35:14;10.50;99.90
3752;DHT22;50827;47.014;7.652;2023-04-19T07:37:41;10.40;99.90
3752;DHT22;50827;47.014;7.652;2023-04-19T07:40:08;10.40;99.90
3752;DHT22;50827;47.014;7.652;2023-04-19T07:42:35;10.40;99.90
3752;DHT22;50827;47.014;7.652;2023-04-19T07:45:02;10.40;99.90
3752;DHT22;50827;47.014;7.652;2023-04-19T07:47:29;10.50;99.90
3752;DHT22;50827;47.014;7.652;2023-04-19T07:49:56;10.60;99.90
3752;DHT22;50827;47.014;7.652;2023-04-19T07:52:23;10.60;99.90
3752;DHT22;50827;47.014;7.652;2023-04-19T07:54:50;10.60;99.90
3752;DHT22;50827;47.014;7.652;2023-04-19T07:57:16;10.60;99.90
3752;DHT22;50827;47.014;7.652;2023-04-19T07:59:43;10.70;99.90
3752;DHT22;50827;47.014;7.652;2023-04-19T08:02:09;10.80;99.90
3752;DHT22;50827;47.014;7.652;2023-04-19T08:04:36;10.80;99.90
3752;DHT22;50827;47.014;7.652;2023-04-19T08:07:04;10.80;99.90
3752;DHT22;50827;47.014;7.652;2023-04-19T08:09:32;10.80;99.90
3752;DHT22;50827;47.014;7.652;2023-04-19T08:11:59;10.80;99.90
3752;DHT22;50827;47.014;7.652;2023-04-19T08:14:26;10.90;99.90
3752;DHT22;50827;47.014;7.652;2023-04-19T08:17:09;10.90;99.90
3752;DHT22;50827;47.014;7.652;2023-04-19T08:19:53;11.00;99.90
3752;DHT22;50827;47.014;7.652;2023-04-19T08:22:20;11.00;99.90
3752;DHT22;50827;47.014;7.652;2023-04-19T08:24:50;11.10;99.90
3752;DHT22;50827;47.014;7.652;2023-04-19T08:27:18;11.10;99.90
3752;DHT22;50827;47.014;7.652;2023-04-19T08:29:45;11.20;99.90
3752;DHT22;50827;47.014;7.652;2023-04-19T08:32:12;11.20;99.90
3752;DHT22;50827;47.014;7.652;2023-04-19T08:34:39;11.30;99.90
3752;DHT22;50827;47.014;7.652;2023-04-19T08:37:06;11.40;99.90
3752;DHT22;50827;47.014;7.652;2023-04-19T08:39:33;11.50;99.90
3752;DHT22;50827;47.014;7.652;2023-04-19T08:42:04;11.50;99.90
3752;DHT22;50827;47.014;7.652;2023-04-19T08:44:45;11.60;99.90
3752;DHT22;50827;47.014;7.652;2023-04-19T08:47:32;11.70;99.90
3752;DHT22;50827;47.014;7.652;2023-04-19T08:50:02;11.80;99.90
3752;DHT22;50827;47.014;7.652;2023-04-19T08:52:33;11.90;99.90
3752;DHT22;50827;47.014;7.652;2023-04-19T08:55:10;12.00;99.90
3752;DHT22;50827;47.014;7.652;2023-04-19T08:57:37;12.10;99.90
3752;DHT22;50827;47.014;7.652;2023-04-19T09:00:04;12.20;99.90
3752;DHT22;50827;47.014;7.652;2023-04-19T09:02:47;12.20;99.90
3752;DHT22;50827;47.014;7.652;2023-04-19T09:05:16;12.30;99.90
3752;DHT22;50827;47.014;7.652;2023-04-19T09:07:46;12.40;99.90
3752;DHT22;50827;47.014;7.652;2023-04-19T09:10:18;12.50;99.90
3752;DHT22;50827;47.014;7.652;2023-04-19T09:13:02;12.60;99.90
3752;DHT22;50827;47.014;7.652;2023-04-19T09:15:36;12.70;99.90
3752;DHT22;50827;47.014;7.652;2023-04-19T09:18:05;12.80;99.90
3752;DHT22;50827;47.014;7.652;2023-04-19T09:20:42;12.90;99.90
3752;DHT22;50827;47.014;7.652;2023-04-19T09:23:17;13.00;99.90
3752;DHT22;50827;47.014;7.652;2023-04-19T09:28:58;13.20;99.90
3752;DHT22;50827;47.014;7.652;2023-04-19T09:31:26;13.20;99.90
3752;DHT22;50827;47.014;7.652;2023-04-19T09:34:15;13.20;99.90
3752;DHT22;50827;47.014;7.652;2023-04-19T09:36:43;13.20;99.90
3752;DHT22;50827;47.014;7.652;2023-04-19T09:39:10;13.20;99.90
3752;DHT22;50827;47.014;7.652;2023-04-19T09:41:53;13.20;99.90
3752;DHT22;50827;47.014;7.652;2023-04-19T09:44:20;13.20;99.90
3752;DHT22;50827;47.014;7.652;2023-04-19T09:46:50;13.20;99.90
3752;DHT22;50827;47.014;7.652;2023-04-19T09:49:24;13.30;99.90
3752;DHT22;50827;47.014;7.652;2023-04-19T09:52:13;13.40;99.90
3752;DHT22;50827;47.014;7.652;2023-04-19T09:54:40;13.50;99.90
3752;DHT22;50827;47.014;7.652;2023-04-19T09:57:07;13.60;99.90
3752;DHT22;50827;47.014;7.652;2023-04-19T09:59:34;13.50;99.90
3752;DHT22;50827;47.014;7.652;2023-04-19T10:02:01;13.60;99.90
3752;DHT22;50827;47.014;7.652;2023-04-19T10:04:30;13.50;99.90
3752;DHT22;50827;47.014;7.652;2023-04-19T10:07:17;13.60;99.90
3752;DHT22;50827;47.014;7.652;2023-04-19T10:09:57;13.70;99.90
3752;DHT22;50827;47.014;7.652;2023-04-19T10:12:47;13.70;99.90
3752;DHT22;50827;47.014;7.652;2023-04-19T10:15:35;13.80;99.90
3752;DHT22;50827;47.014;7.652;2023-04-19T10:18:06;14.00;99.90
3752;DHT22;50827;47.014;7.652;2023-04-19T10:20:41;14.00;99.90
3752;DHT22;50827;47.014;7.652;2023-04-19T10:23:12;14.10;99.90
3752;DHT22;50827;47.014;7.652;2023-04-19T10:25:39;14.20;99.90
3752;DHT22;50827;47.014;7.652;2023-04-19T10:28:05;14.20;99.90
3752;DHT22;50827;47.014;7.652;2023-04-19T10:30:32;14.20;99.90
3752;DHT22;50827;47.014;7.652;2023-04-19T10:32:59;14.10;99.90
3752;DHT22;50827;47.014;7.652;2023-04-19T10:35:36;14.20;99.90
3752;DHT22;50827;47.014;7.652;2023-04-19T10:38:12;14.20;99.90
3752;DHT22;50827;47.014;7.652;2023-04-19T10:43:32;14.40;99.90
3752;DHT22;50827;47.014;7.652;2023-04-19T10:46:08;14.40;99.90
3752;DHT22;50827;47.014;7.652;2023-04-19T10:48:37;14.50;99.90
3752;DHT22;50827;47.014;7.652;2023-04-19T10:51:17;14.60;99.90
3752;DHT22;50827;47.014;7.652;2023-04-19T11:01:45;15.00;99.90
3752;DHT22;50827;47.014;7.652;2023-04-19T11:04:17;15.00;99.90
3752;DHT22;50827;47.014;7.652;2023-04-19T11:09:37;15.00;99.90
3752;DHT22;50827;47.014;7.652;2023-04-19T11:12:09;15.10;99.90
3752;DHT22;50827;47.014;7.652;2023-04-19T11:14:42;15.10;99.90
3752;DHT22;50827;47.014;7.652;2023-04-19T11:17:23;15.10;99.90
3752;DHT22;50827;47.014;7.652;2023-04-19T11:20:04;15.10;99.90
3752;DHT22;50827;47.014;7.652;2023-04-19T11:22:37;15.10;99.90
3752;DHT22;50827;47.014;7.652;2023-04-19T11:25:13;15.10;99.90
3752;DHT22;50827;47.014;7.652;2023-04-19T11:27:40;15.10;99.90
3752;DHT22;50827;47.014;7.652;2023-04-19T11:30:19;15.10;99.90
3752;DHT22;50827;47.014;7.652;2023-04-19T11:32:52;15.10;99.90
3752;DHT22;50827;47.014;7.652;2023-04-19T11:35:20;15.00;99.90
3752;DHT22;50827;47.014;7.652;2023-04-19T11:37:48;15.00;99.90
3752;DHT22;50827;47.014;7.652;2023-04-19T11:40:16;15.10;99.90
3752;DHT22;50827;47.014;7.652;2023-04-19T11:42:44;15.10;99.90
3752;DHT22;50827;47.014;7.652;2023-04-19T11:45:12;15.10;99.90
3752;DHT22;50827;47.014;7.652;2023-04-19T11:47:56;15.20;99.90
3752;DHT22;50827;47.014;7.652;2023-04-19T11:52:56;15.50;99.90
3752;DHT22;50827;47.014;7.652;2023-04-19T11:55:23;15.50;99.90
3752;DHT22;50827;47.014;7.652;2023-04-19T11:57:50;15.50;99.90
3752;DHT22;50827;47.014;7.652;2023-04-19T12:00:26;15.50;99.90
3752;DHT22;50827;47.014;7.652;2023-04-19T12:02:54;15.30;99.90
3752;DHT22;50827;47.014;7.652;2023-04-19T12:05:22;15.30;99.90
3752;DHT22;50827;47.014;7.652;2023-04-19T12:08:03;15.40;99.90
3752;DHT22;50827;47.014;7.652;2023-04-19T12:10:31;15.40;99.90
3752;DHT22;50827;47.014;7.652;2023-04-19T12:12:58;15.40;99.90
3752;DHT22;50827;47.014;7.652;2023-04-19T12:15:45;15.20;99.90
3752;DHT22;50827;47.014;7.652;2023-04-19T12:18:12;15.10;99.90
3752;DHT22;50827;47.014;7.652;2023-04-19T12:20:44;15.10;99.90
3752;DHT22;50827;47.014;7.652;2023-04-19T12:23:12;15.00;99.90
3752;DHT22;50827;47.014;7.652;2023-04-19T12:25:43;14.90;99.90
3752;DHT22;50827;47.014;7.652;2023-04-19T12:28:10;14.80;99.90
3752;DHT22;50827;47.014;7.652;2023-04-19T12:30:38;15.00;99.90
3752;DHT22;50827;47.014;7.652;2023-04-19T12:33:06;15.00;99.90
3752;DHT22;50827;47.014;7.652;2023-04-19T12:35:34;14.80;99.90
3752;DHT22;50827;47.014;7.652;2023-04-19T12:38:01;14.90;99.90
3752;DHT22;50827;47.014;7.652;2023-04-19T12:40:29;14.90;99.90
3752;DHT22;50827;47.014;7.652;2023-04-19T12:42:56;14.80;99.90
3752;DHT22;50827;47.014;7.652;2023-04-19T12:45:22;14.80;99.90
3752;DHT22;50827;47.014;7.652;2023-04-19T12:47:49;15.10;99.90
3752;DHT22;50827;47.014;7.652;2023-04-19T12:50:16;15.20;99.90
3752;DHT22;50827;47.014;7.652;2023-04-19T12:52:44;15.10;99.90
3752;DHT22;50827;47.014;7.652;2023-04-19T12:55:11;15.20;99.90
3752;DHT22;50827;47.014;7.652;2023-04-19T12:57:38;15.20;99.90
3752;DHT22;50827;47.014;7.652;2023-04-19T13:00:09;15.30;99.90
3752;DHT22;50827;47.014;7.652;2023-04-19T13:02:37;15.20;99.90
3752;DHT22;50827;47.014;7.652;2023-04-19T13:05:04;15.30;99.90
3752;DHT22;50827;47.014;7.652;2023-04-19T13:07:31;15.40;99.90
3752;DHT22;50827;47.014;7.652;2023-04-19T13:09:58;15.40;99.90
3752;DHT22;50827;47.014;7.652;2023-04-19T13:12:25;15.40;99.90
3752;DHT22;50827;47.014;7.652;2023-04-19T13:14:52;15.40;99.90
3752;DHT22;50827;47.014;7.652;2023-04-19T13:17:19;15.40;99.90
3752;DHT22;50827;47.014;7.652;2023-04-19T13:19:46;15.40;99.90
3752;DHT22;50827;47.014;7.652;2023-04-19T13:22:13;15.30;99.90
3752;DHT22;50827;47.014;7.652;2023-04-19T13:24:40;15.20;99.90
3752;DHT22;50827;47.014;7.652;2023-04-19T13:27:07;15.10;99.90
3752;DHT22;50827;47.014;7.652;2023-04-19T13:29:35;15.10;99.90
3752;DHT22;50827;47.014;7.652;2023-04-19T13:32:02;15.10;99.90
3752;DHT22;50827;47.014;7.652;2023-04-19T13:34:29;15.10;99.90
3752;DHT22;50827;47.014;7.652;2023-04-19T13:36:56;15.20;99.90
3752;DHT22;50827;47.014;7.652;2023-04-19T13:39:23;15.30;99.90
3752;DHT22;50827;47.014;7.652;2023-04-19T13:41:50;15.30;99.90
3752;DHT22;50827;47.014;7.652;2023-04-19T13:44:17;15.40;99.90
3752;DHT22;50827;47.014;7.652;2023-04-19T13:46:44;15.40;99.90
3752;DHT22;50827;47.014;7.652;2023-04-19T13:49:11;15.30;99.90
3752;DHT22;50827;47.014;7.652;2023-04-19T13:51:37;15.30;99.90
3752;DHT22;50827;47.014;7.652;2023-04-19T13:54:15;15.40;99.90
3752;DHT22;50827;47.014;7.652;2023-04-19T13:56:44;15.50;99.90
3752;DHT22;50827;47.014;7.652;2023-04-19T13:59:10;15.60;99.90
3752;DHT22;50827;47.014;7.652;2023-04-19T14:01:37;15.60;99.90
3752;DHT22;50827;47.014;7.652;2023-04-19T14:04:04;15.60;99.90
3752;DHT22;50827;47.014;7.652;2023-04-19T14:06:31;15.60;99.90
3752;DHT22;50827;47.014;7.652;2023-04-19T14:08:58;15.70;99.90
3752;DHT22;50827;47.014;7.652;2023-04-19T14:11:24;15.70;99.90
3752;DHT22;50827;47.014;7.652;2023-04-19T14:13:52;15.60;99.90
3752;DHT22;50827;47.014;7.652;2023-04-19T14:16:19;15.60;99.90
3752;DHT22;50827;47.014;7.652;2023-04-19T14:18:46;15.60;99.90
3752;DHT22;50827;47.014;7.652;2023-04-19T14:21:13;15.50;99.90
3752;DHT22;50827;47.014;7.652;2023-04-19T14:23:39;15.40;99.90
3752;DHT22;50827;47.014;7.652;2023-04-19T14:26:06;15.10;99.90
3752;DHT22;50827;47.014;7.652;2023-04-19T14:28:33;15.10;99.90
3752;DHT22;50827;47.014;7.652;2023-04-19T14:30:59;15.20;99.90
3752;DHT22;50827;47.014;7.652;2023-04-19T14:33:26;15.10;99.90
3752;DHT22;50827;47.014;7.652;2023-04-19T14:35:53;14.90;99.90
3752;DHT22;50827;47.014;7.652;2023-04-19T14:38:19;14.80;99.90
3752;DHT22;50827;47.014;7.652;2023-04-19T14:40:47;14.80;99.90
3752;DHT22;50827;47.014;7.652;2023-04-19T14:43:14;14.80;99.90
3752;DHT22;50827;47.014;7.652;2023-04-19T14:45:42;14.90;99.90
3752;DHT22;50827;47.014;7.652;2023-04-19T14:48:08;14.70;99.90
3752;DHT22;50827;47.014;7.652;2023-04-19T14:50:35;14.70;99.90
3752;DHT22;50827;47.014;7.652;2023-04-19T14:53:02;14.70;99.90
3752;DHT22;50827;47.014;7.652;2023-04-19T14:55:28;14.80;99.90
3752;DHT22;50827;47.014;7.652;2023-04-19T14:57:55;14.80;99.90
3752;DHT22;50827;47.014;7.652;2023-04-19T15:00:22;14.90;99.90
3752;DHT22;50827;47.014;7.652;2023-04-19T15:02:48;15.00;99.90
3752;DHT22;50827;47.014;7.652;2023-04-19T15:05:15;15.10;99.90
3752;DHT22;50827;47.014;7.652;2023-04-19T15:07:42;15.20;99.90
3752;DHT22;50827;47.014;7.652;2023-04-19T15:10:09;15.00;99.90
3752;DHT22;50827;47.014;7.652;2023-04-19T15:12:36;14.90;99.90
3752;DHT22;50827;47.014;7.652;2023-04-19T15:15:04;14.50;99.90
3752;DHT22;50827;47.014;7.652;2023-04-19T15:17:31;14.40;99.90
3752;DHT22;50827;47.014;7.652;2023-04-19T15:19:57;14.40;99.90
3752;DHT22;50827;47.014;7.652;2023-04-19T15:22:27;14.50;99.90
3752;DHT22;50827;47.014;7.652;2023-04-19T15:24:53;14.50;99.90
3752;DHT22;50827;47.014;7.652;2023-04-19T15:27:20;14.60;99.90
3752;DHT22;50827;47.014;7.652;2023-04-19T15:29:47;14.50;99.90
3752;DHT22;50827;47.014;7.652;2023-04-19T15:32:13;14.30;99.90
3752;DHT22;50827;47.014;7.652;2023-04-19T15:34:40;14.20;99.90
3752;DHT22;50827;47.014;7.652;2023-04-19T15:37:07;14.00;99.90
3752;DHT22;50827;47.014;7.652;2023-04-19T15:39:34;14.20;99.90
3752;DHT22;50827;47.014;7.652;2023-04-19T15:42:00;14.40;99.90
3752;DHT22;50827;47.014;7.652;2023-04-19T15:44:28;14.50;99.90
3752;DHT22;50827;47.014;7.652;2023-04-19T15:46:55;14.50;99.90
3752;DHT22;50827;47.014;7.652;2023-04-19T15:49:22;14.40;99.90
3752;DHT22;50827;47.014;7.652;2023-04-19T15:51:49;14.30;99.90
3752;DHT22;50827;47.014;7.652;2023-04-19T15:54:15;14.20;99.90
3752;DHT22;50827;47.014;7.652;2023-04-19T15:56:42;14.30;99.90
3752;DHT22;50827;47.014;7.652;2023-04-19T15:59:08;14.30;99.90
3752;DHT22;50827;47.014;7.652;2023-04-19T16:01:35;14.30;99.90
3752;DHT22;50827;47.014;7.652;2023-04-19T16:04:04;14.30;99.90
3752;DHT22;50827;47.014;7.652;2023-04-19T16:06:31;14.30;99.90
3752;DHT22;50827;47.014;7.652;2023-04-19T16:08:58;14.30;99.90
3752;DHT22;50827;47.014;7.652;2023-04-19T16:11:25;14.40;99.90
3752;DHT22;50827;47.014;7.652;2023-04-19T16:13:51;14.20;99.90
3752;DHT22;50827;47.014;7.652;2023-04-19T16:16:18;14.10;99.90